createdAt,value
2022-11-02T00:00:30.444Z,100577.44
2022-11-02T00:02:58.259Z,100576.44
2022-11-02T00:05:27.344Z,100584.28
2022-11-02T00:07:56.195Z,100582.13
2022-11-02T00:10:25.326Z,100580.28
2022-11-02T00:12:53.565Z,100582.84
2022-11-02T00:15:21.216Z,100593.25
2022-11-02T00:17:53.957Z,100587.91
2022-11-02T00:20:22.252Z,100581.28
2022-11-02T00:22:53.569Z,100580.16
2022-11-02T00:25:24.638Z,100576.84
2022-11-02T00:27:52.275Z,100581.19
2022-11-02T00:30:20.017Z,100583.94
2022-11-02T00:32:47.778Z,100577.91
2022-11-02T00:35:17.051Z,100576.09
2022-11-02T00:37:44.788Z,100573.56
2022-11-02T00:40:13.029Z,100574.09
2022-11-02T00:42:40.727Z,100570.75
2022-11-02T00:45:09.711Z,100567.09
2022-11-02T00:47:37.309Z,100569.59
2022-11-02T00:50:05.912Z,100569.78
2022-11-02T00:52:34.929Z,100570.28
2022-11-02T00:55:02.747Z,100563.13
2022-11-02T00:57:30.318Z,100569.97
2022-11-02T00:59:58.080Z,100564.78
2022-11-02T01:02:25.847Z,100570.28
2022-11-02T01:04:53.858Z,100570.97
2022-11-02T01:07:21.429Z,100566.44
2022-11-02T01:09:50.646Z,100570.13
2022-11-02T01:12:18.202Z,100576.81
2022-11-02T01:14:47.014Z,100579.50
2022-11-02T01:17:15.336Z,100576.47
2022-11-02T01:19:43.455Z,100567.16
2022-11-02T01:22:11.051Z,100570.47
2022-11-02T01:24:38.683Z,100565.97
2022-11-02T01:27:07.688Z,100564.78
2022-11-02T01:29:35.376Z,100562.63
2022-11-02T01:32:03.248Z,100560.25
2022-11-02T01:34:30.833Z,100561.44
2022-11-02T01:36:58.842Z,100557.09
2022-11-02T01:39:26.422Z,100559.44
2022-11-02T01:41:55.277Z,100565.63
2022-11-02T01:44:33.793Z,100553.91
2022-11-02T01:47:08.888Z,100547.25
2022-11-02T01:49:39.548Z,100544.94
2022-11-02T01:52:12.322Z,100551.41
2022-11-02T01:54:43.462Z,100551.59
2022-11-02T01:57:17.721Z,100550.25
2022-11-02T01:59:51.529Z,100551.41
2022-11-02T02:02:23.001Z,100553.06
2022-11-02T02:04:53.614Z,100548.38
2022-11-02T02:07:24.834Z,100534.53
2022-11-02T02:09:53.718Z,100540.72
2022-11-02T02:12:22.415Z,100541.91
2022-11-02T02:14:51.851Z,100536.84
2022-11-02T02:17:33.165Z,100536.63
2022-11-02T02:20:06.397Z,100533.88
2022-11-02T02:23:07.463Z,100533.66
2022-11-02T02:26:09.381Z,100534.56
2022-11-02T02:28:44.298Z,100535.31
2022-11-02T02:31:18.639Z,100525.03
2022-11-02T02:33:52.770Z,100515.09
2022-11-02T02:36:25.786Z,100520.50
2022-11-02T02:39:03.329Z,100506.31
2022-11-02T02:41:40.102Z,100506.13
2022-11-02T02:44:12.466Z,100513.50
2022-11-02T02:46:49.069Z,100497.09
2022-11-02T02:49:22.862Z,100500.63
2022-11-02T02:51:52.242Z,100510.13
2022-11-02T02:54:22.819Z,100504.13
2022-11-02T02:56:54.833Z,100508.59
2022-11-02T02:59:28.392Z,100507.44
2022-11-02T03:01:57.025Z,100503.38
2022-11-02T03:04:24.763Z,100507.78
2022-11-02T03:06:55.682Z,100506.78
2022-11-02T03:09:29.871Z,100512.63
2022-11-02T03:12:04.271Z,100508.44
2022-11-02T03:14:49.932Z,100505.69
2022-11-02T03:17:19.659Z,100520.19
2022-11-02T03:19:54.235Z,100514.47
2022-11-02T03:22:31.961Z,100517.59
2022-11-02T03:25:07.153Z,100511.47
2022-11-02T03:27:40.919Z,100521.34
2022-11-02T03:30:14.551Z,100521.50
2022-11-02T03:32:49.667Z,100512.28
2022-11-02T03:35:21.714Z,100525.88
2022-11-02T03:37:55.613Z,100510.66
2022-11-02T03:40:29.259Z,100520.63
2022-11-02T03:42:58.807Z,100520.44
2022-11-02T03:45:32.862Z,100521.69
2022-11-02T03:48:05.151Z,100526.63
2022-11-02T03:50:35.278Z,100533.22
2022-11-02T03:53:07.484Z,100536.94
2022-11-02T03:55:38.676Z,100534.41
2022-11-02T03:58:07.766Z,100531.03
2022-11-02T04:00:39.835Z,100540.84
2022-11-02T04:03:07.888Z,100543.16
2022-11-02T04:05:37.053Z,100541.22
2022-11-02T04:08:24.445Z,100554.66
2022-11-02T04:11:12.214Z,100547.75
2022-11-02T04:13:57.471Z,100550.84
2022-11-02T04:16:28.270Z,100558.34
2022-11-02T04:19:14.230Z,100567.94
2022-11-02T04:22:03.269Z,100566.03
2022-11-02T04:24:48.539Z,100577.50
2022-11-02T04:27:20.484Z,100564.28
2022-11-02T04:29:48.705Z,100573.41
2022-11-02T04:32:38.761Z,100570.84
2022-11-02T04:35:06.683Z,100573.34
2022-11-02T04:37:57.042Z,100573.63
2022-11-02T04:40:24.693Z,100561.97
2022-11-02T04:42:52.314Z,100571.03
2022-11-02T04:45:20.108Z,100571.09
2022-11-02T04:47:49.060Z,100570.13
2022-11-02T04:50:16.910Z,100575.63
2022-11-02T04:52:44.578Z,100580.00
2022-11-02T04:55:12.231Z,100574.38
2022-11-02T05:00:13.704Z,100579.41
2022-11-02T05:02:41.352Z,100580.16
2022-11-02T05:05:12.796Z,100587.03
2022-11-02T05:07:41.085Z,100589.41
2022-11-02T05:10:10.649Z,100589.41
2022-11-02T05:12:38.496Z,100594.63
2022-11-02T05:15:07.177Z,100597.72
2022-11-02T05:17:34.772Z,100591.25
2022-11-02T05:20:02.697Z,100598.66
2022-11-02T05:22:32.123Z,100590.50
2022-11-02T05:24:59.699Z,100598.19
2022-11-02T05:27:27.256Z,100589.84
2022-11-02T05:29:54.826Z,100592.88
2022-11-02T05:32:22.435Z,100594.75
2022-11-02T05:34:50.122Z,100605.44
2022-11-02T05:37:17.861Z,100605.78
2022-11-02T05:39:49.531Z,100614.28
2022-11-02T05:42:18.230Z,100618.47
2022-11-02T05:44:45.925Z,100622.59
2022-11-02T05:47:13.518Z,100621.78
2022-11-02T05:49:41.078Z,100617.44
2022-11-02T05:52:08.797Z,100622.31
2022-11-02T05:54:36.378Z,100616.13
2022-11-02T05:57:05.387Z,100622.69
2022-11-02T05:59:32.949Z,100614.94
2022-11-02T06:02:00.598Z,100624.53
2022-11-02T06:04:28.361Z,100618.97
2022-11-02T06:06:56.088Z,100634.50
2022-11-02T06:09:23.844Z,100648.41
2022-11-02T06:11:51.533Z,100644.91
2022-11-02T06:14:20.427Z,100646.88
2022-11-02T06:16:47.991Z,100646.03
2022-11-02T06:21:48.643Z,100651.72
2022-11-02T06:24:16.673Z,100656.38
2022-11-02T06:26:44.321Z,100664.59
2022-11-02T06:29:11.919Z,100668.06
2022-11-02T06:31:40.873Z,100666.38
2022-11-02T06:34:08.533Z,100670.38
2022-11-02T06:36:36.242Z,100671.66
2022-11-02T06:39:03.883Z,100672.81
2022-11-02T06:41:31.575Z,100669.78
2022-11-02T06:43:59.212Z,100680.84
2022-11-02T06:46:26.845Z,100671.91
2022-11-02T06:48:55.833Z,100691.00
2022-11-02T06:51:23.458Z,100683.16
2022-11-02T06:53:51.127Z,100682.41
2022-11-02T06:56:18.749Z,100687.66
2022-11-02T06:58:46.581Z,100701.72
2022-11-02T07:01:15.676Z,100697.03
2022-11-02T07:03:43.829Z,100703.41
2022-11-02T07:06:14.379Z,100711.16
2022-11-02T07:08:42.695Z,100711.16
2022-11-02T07:11:15.242Z,100712.72
2022-11-02T07:13:42.931Z,100721.44
2022-11-02T07:16:10.621Z,100729.69
2022-11-02T07:18:38.487Z,100734.47
2022-11-02T07:21:06.263Z,100727.97
2022-11-02T07:23:35.248Z,100733.94
2022-11-02T07:26:03.132Z,100743.84
2022-11-02T07:28:30.752Z,100742.44
2022-11-02T07:30:58.521Z,100745.19
2022-11-02T07:33:26.102Z,100750.03
2022-11-02T07:35:53.678Z,100753.31
2022-11-02T07:38:21.267Z,100756.28
2022-11-02T07:40:51.613Z,100754.19
2022-11-02T07:43:19.272Z,100748.78
2022-11-02T07:45:46.864Z,100750.00
2022-11-02T07:48:14.447Z,100748.03
2022-11-02T07:50:42.177Z,100752.72
2022-11-02T07:53:10.279Z,100742.56
2022-11-02T07:55:37.857Z,100758.00
2022-11-02T07:58:11.241Z,100757.47
2022-11-02T08:00:40.857Z,100751.47
2022-11-02T08:03:10.938Z,100757.72
2022-11-02T08:05:40.128Z,100743.06
2022-11-02T08:08:11.281Z,100751.97
2022-11-02T08:10:46.247Z,100753.84
2022-11-02T08:13:17.936Z,100752.97
2022-11-02T08:15:45.935Z,100757.13
2022-11-02T08:18:15.565Z,100751.44
2022-11-02T08:20:43.739Z,100758.69
2022-11-02T08:23:11.919Z,100758.69
2022-11-02T08:25:40.461Z,100758.25
2022-11-02T08:28:09.417Z,100760.88
2022-11-02T08:30:39.379Z,100761.00
2022-11-02T08:33:09.641Z,100774.00
2022-11-02T08:35:44.739Z,100765.63
2022-11-02T08:38:12.791Z,100772.06
2022-11-02T08:40:43.046Z,100767.44
2022-11-02T08:43:14.371Z,100766.75
2022-11-02T08:48:33.045Z,100763.31
2022-11-02T08:51:00.637Z,100760.94
2022-11-02T08:53:28.305Z,100769.75
2022-11-02T08:55:58.204Z,100760.50
2022-11-02T08:58:25.847Z,100756.63
2022-11-02T09:00:55.229Z,100759.13
2022-11-02T09:03:26.794Z,100761.25
2022-11-02T09:05:59.449Z,100755.00
2022-11-02T09:08:28.438Z,100761.06
2022-11-02T09:10:59.854Z,100755.09
2022-11-02T09:13:27.794Z,100768.97
2022-11-02T09:15:57.980Z,100766.75
2022-11-02T09:18:25.711Z,100769.06
2022-11-02T09:20:53.403Z,100769.53
2022-11-02T09:23:22.148Z,100773.47
2022-11-02T09:25:50.095Z,100774.97
2022-11-02T09:28:17.631Z,100776.88
2022-11-02T09:30:45.310Z,100780.38
2022-11-02T09:33:14.664Z,100775.47
2022-11-02T09:35:44.659Z,100760.63
2022-11-02T09:38:13.259Z,100775.56
2022-11-02T09:40:44.220Z,100776.13
2022-11-02T09:43:21.299Z,100786.56
2022-11-02T09:45:56.778Z,100791.00
2022-11-02T09:48:30.222Z,100782.91
2022-11-02T09:51:05.171Z,100783.72
2022-11-02T09:53:43.056Z,100774.28
2022-11-02T09:56:14.004Z,100778.50
2022-11-02T09:58:43.100Z,100787.66
2022-11-02T10:01:34.060Z,100786.63
2022-11-02T10:04:29.814Z,100788.06
2022-11-02T10:07:11.497Z,100790.97
2022-11-02T10:09:47.465Z,100791.41
2022-11-02T10:17:50.552Z,100793.28
2022-11-02T10:20:27.631Z,100800.78
2022-11-02T10:23:03.753Z,100791.78
2022-11-02T10:25:31.916Z,100808.84
2022-11-02T10:28:10.311Z,100810.94
2022-11-02T10:30:39.702Z,100810.09
2022-11-02T10:33:16.117Z,100810.53
2022-11-02T10:38:51.170Z,100803.75
2022-11-02T10:41:36.774Z,100793.94
2022-11-02T10:44:17.860Z,100801.69
2022-11-02T10:46:58.805Z,100812.78
2022-11-02T10:49:45.528Z,100799.97
2022-11-02T10:52:19.041Z,100788.84
2022-11-02T10:54:46.682Z,100784.28
2022-11-02T10:57:15.929Z,100790.75
2022-11-02T10:59:43.482Z,100786.63
2022-11-02T11:02:14.407Z,100793.69
2022-11-02T11:04:43.798Z,100782.88
2022-11-02T11:07:19.060Z,100775.19
2022-11-02T11:09:51.343Z,100776.25
2022-11-02T11:12:23.940Z,100780.59
2022-11-02T11:20:35.070Z,100773.75
2022-11-02T11:23:19.959Z,100776.22
2022-11-02T11:25:59.749Z,100778.09
2022-11-02T11:28:30.264Z,100784.75
2022-11-02T11:31:13.337Z,100774.97
2022-11-02T11:33:54.263Z,100772.50
2022-11-02T11:36:27.851Z,100771.03
2022-11-02T11:39:00.291Z,100765.19
2022-11-02T11:41:28.956Z,100773.09
2022-11-02T11:43:56.798Z,100764.16
2022-11-02T11:46:24.662Z,100758.28
2022-11-02T11:48:59.066Z,100754.88
2022-11-02T11:51:33.314Z,100775.66
2022-11-02T11:54:27.781Z,100758.59
2022-11-02T11:56:56.824Z,100761.91
2022-11-02T11:59:33.369Z,100760.47
2022-11-02T12:02:02.877Z,100755.38
2022-11-02T12:04:34.527Z,100756.28
2022-11-02T12:07:33.091Z,100748.75
2022-11-02T12:10:13.065Z,100743.22
2022-11-02T12:12:53.464Z,100731.31
2022-11-02T12:15:36.466Z,100742.53
2022-11-02T12:18:20.038Z,100721.66
2022-11-02T12:21:03.205Z,100723.97
2022-11-02T12:23:52.921Z,100726.91
2022-11-02T12:26:31.575Z,100721.09
2022-11-02T12:29:12.572Z,100713.22
2022-11-02T12:31:44.806Z,100712.06
2022-11-02T12:34:30.805Z,100710.38
2022-11-02T12:37:33.169Z,100718.59
2022-11-02T12:40:12.071Z,100732.59
2022-11-02T12:42:47.310Z,100726.03
2022-11-02T12:45:28.535Z,100732.53
2022-11-02T12:47:59.679Z,100735.25
2022-11-02T12:50:45.543Z,100738.63
2022-11-02T12:53:38.475Z,100741.19
2022-11-02T12:56:11.749Z,100741.81
2022-11-02T12:58:42.702Z,100743.31
2022-11-02T13:01:15.379Z,100724.97
2022-11-02T13:03:50.823Z,100716.41
2022-11-02T13:06:22.979Z,100703.38
2022-11-02T13:08:55.536Z,100704.69
2022-11-02T13:11:29.845Z,100703.13
2022-11-02T13:14:00.723Z,100700.03
2022-11-02T13:16:40.685Z,100701.56
2022-11-02T13:19:16.292Z,100703.22
2022-11-02T13:21:51.359Z,100714.44
2022-11-02T13:24:25.093Z,100718.19
2022-11-02T13:26:57.662Z,100720.03
2022-11-02T13:29:44.889Z,100713.66
2022-11-02T13:32:19.054Z,100717.56
2022-11-02T13:34:53.162Z,100708.75
2022-11-02T13:37:26.993Z,100703.84
2022-11-02T13:39:58.950Z,100699.31
2022-11-02T13:43:03.464Z,100686.59
2022-11-02T13:45:56.657Z,100683.66
2022-11-02T13:48:51.720Z,100687.38
2022-11-02T13:51:27.563Z,100688.94
2022-11-02T13:54:00.472Z,100681.50
2022-11-02T13:56:30.308Z,100677.59
2022-11-02T13:59:03.045Z,100675.22
2022-11-02T14:01:36.485Z,100690.88
2022-11-02T14:04:08.027Z,100692.75
2022-11-02T14:06:48.938Z,100692.75
2022-11-02T14:09:28.956Z,100698.97
2022-11-02T14:12:34.265Z,100701.53
2022-11-02T14:15:42.221Z,100690.56
2022-11-02T14:18:30.794Z,100685.63
2022-11-02T14:20:59.139Z,100687.72
2022-11-02T14:23:38.540Z,100688.09
2022-11-02T14:26:26.425Z,100691.25
2022-11-02T14:28:53.961Z,100691.66
2022-11-02T14:31:38.524Z,100700.78
2022-11-02T14:34:39.876Z,100704.75
2022-11-02T14:37:27.406Z,100708.06
2022-11-02T14:40:01.842Z,100704.06
2022-11-02T14:43:06.886Z,100700.75
2022-11-02T14:45:53.242Z,100706.56
2022-11-02T14:48:20.951Z,100698.66
2022-11-02T14:51:05.150Z,100702.84
2022-11-02T14:53:36.182Z,100693.91
2022-11-02T14:56:04.541Z,100698.28
2022-11-02T14:58:36.322Z,100689.38
2022-11-02T15:01:05.933Z,100701.22
2022-11-02T15:03:37.741Z,100693.75
2022-11-02T15:06:17.445Z,100699.13
2022-11-02T15:08:54.037Z,100701.63
2022-11-02T15:11:44.065Z,100697.00
2022-11-02T15:14:34.364Z,100690.34
2022-11-02T15:17:02.508Z,100692.59
2022-11-02T15:19:43.919Z,100691.13
2022-11-02T15:22:36.363Z,100694.00
2022-11-02T15:25:12.757Z,100689.59
2022-11-02T15:27:43.389Z,100689.78
2022-11-02T15:30:15.293Z,100681.03
2022-11-02T15:32:48.281Z,100684.31
2022-11-02T15:35:20.131Z,100680.38
2022-11-02T15:38:16.053Z,100680.13
2022-11-02T15:40:49.251Z,100693.94
2022-11-02T15:43:38.069Z,100697.81
2022-11-02T15:46:14.872Z,100690.34
2022-11-02T15:48:49.560Z,100695.59
2022-11-02T15:51:25.652Z,100689.78
2022-11-02T15:54:14.511Z,100682.69
2022-11-02T15:56:55.728Z,100685.28
2022-11-02T16:00:11.385Z,100685.63
2022-11-02T16:02:41.349Z,100678.28
2022-11-02T16:05:20.918Z,100680.66
2022-11-02T16:08:16.712Z,100679.41
2022-11-02T16:10:42.309Z,100676.88
2022-11-02T16:13:16.880Z,100681.81
2022-11-02T16:15:45.433Z,100682.22
2022-11-02T16:18:26.794Z,100675.94
2022-11-02T16:20:57.408Z,100665.69
2022-11-02T16:23:27.943Z,100668.13
2022-11-02T16:25:59.381Z,100668.28
2022-11-02T16:28:28.444Z,100656.66
2022-11-02T16:31:01.215Z,100663.25
2022-11-02T16:33:31.521Z,100663.16
2022-11-02T16:36:00.106Z,100665.84
2022-11-02T16:38:28.780Z,100662.25
2022-11-02T16:40:58.155Z,100667.63
2022-11-02T16:43:27.699Z,100672.66
2022-11-02T16:46:03.934Z,100669.50
2022-11-02T16:48:34.449Z,100677.56
2022-11-02T16:51:14.978Z,100681.66
2022-11-02T16:53:42.763Z,100673.97
2022-11-02T16:56:32.377Z,100666.47
2022-11-02T16:59:02.795Z,100677.13
2022-11-02T17:01:37.337Z,100675.63
2022-11-02T17:04:16.374Z,100672.41
2022-11-02T17:06:44.307Z,100676.59
2022-11-02T17:09:23.904Z,100664.56
2022-11-02T17:11:54.252Z,100671.13
2022-11-02T17:14:23.571Z,100666.31
2022-11-02T17:17:00.682Z,100659.28
2022-11-02T17:19:46.645Z,100670.03
2022-11-02T17:22:23.968Z,100666.50
2022-11-02T17:25:04.954Z,100671.13
2022-11-02T17:27:39.211Z,100670.09
2022-11-02T17:30:42.346Z,100679.47
2022-11-02T17:33:17.238Z,100679.38
2022-11-02T17:35:51.787Z,100679.28
2022-11-02T17:38:21.516Z,100673.25
2022-11-02T17:40:52.162Z,100683.63
2022-11-02T17:43:21.848Z,100686.94
2022-11-02T17:45:55.944Z,100684.81
2022-11-02T17:48:24.776Z,100680.09
2022-11-02T17:50:54.218Z,100684.00
2022-11-02T17:53:22.376Z,100692.06
2022-11-02T17:55:49.993Z,100687.69
2022-11-02T17:58:19.876Z,100686.03
2022-11-02T18:00:48.956Z,100684.72
2022-11-02T18:03:19.234Z,100681.13
2022-11-02T18:05:50.076Z,100676.09
2022-11-02T18:08:20.140Z,100689.69
2022-11-02T18:10:51.053Z,100681.53
2022-11-02T18:13:20.587Z,100684.41
2022-11-02T18:15:49.955Z,100685.78
2022-11-02T18:18:17.862Z,100678.31
2022-11-02T18:20:45.954Z,100678.63
2022-11-02T18:23:16.558Z,100678.38
2022-11-02T18:25:44.367Z,100677.34
2022-11-02T18:28:12.089Z,100673.34
2022-11-02T18:30:43.072Z,100680.75
2022-11-02T18:33:13.772Z,100678.44
2022-11-02T18:35:43.142Z,100674.72
2022-11-02T18:38:10.831Z,100671.91
2022-11-02T18:40:38.437Z,100676.53
2022-11-02T18:43:06.290Z,100671.41
2022-11-02T18:45:34.155Z,100669.91
2022-11-02T18:48:01.903Z,100656.88
2022-11-02T18:50:30.953Z,100670.91
2022-11-02T18:52:58.786Z,100674.16
2022-11-02T18:55:26.597Z,100674.16
2022-11-02T18:57:54.364Z,100676.47
2022-11-02T19:00:23.600Z,100674.34
2022-11-02T19:02:51.209Z,100671.84
2022-11-02T19:05:36.604Z,100658.72
2022-11-02T19:08:23.297Z,100660.81
2022-11-02T19:10:50.848Z,100661.22
2022-11-02T19:13:18.426Z,100655.94
2022-11-02T19:15:46.052Z,100653.06
2022-11-02T19:18:13.659Z,100663.66
2022-11-02T19:20:41.344Z,100664.53
2022-11-02T19:23:12.695Z,100657.50
2022-11-02T19:25:40.327Z,100651.50
2022-11-02T19:28:08.307Z,100654.19
2022-11-02T19:30:38.566Z,100647.38
2022-11-02T19:33:06.551Z,100659.00
2022-11-02T19:35:34.389Z,100647.44
2022-11-02T19:38:02.038Z,100643.22
2022-11-02T19:40:31.005Z,100645.09
2022-11-02T19:42:58.692Z,100647.59
2022-11-02T19:45:26.280Z,100641.03
2022-11-02T19:47:53.884Z,100641.09
2022-11-02T19:50:21.568Z,100635.72
2022-11-02T19:52:49.701Z,100640.09
2022-11-02T19:55:18.122Z,100654.66
2022-11-02T19:57:49.509Z,100647.69
2022-11-02T20:00:17.743Z,100633.47
2022-11-02T20:02:45.342Z,100640.31
2022-11-02T20:05:14.576Z,100641.34
2022-11-02T20:07:42.170Z,100642.03
2022-11-02T20:10:10.440Z,100640.22
2022-11-02T20:12:38.612Z,100643.25
2022-11-02T20:15:12.164Z,100642.78
2022-11-02T20:17:58.541Z,100636.25
2022-11-02T20:20:27.980Z,100633.94
2022-11-02T20:22:55.931Z,100638.09
2022-11-02T20:25:25.476Z,100639.28
2022-11-02T20:27:53.606Z,100649.28
2022-11-02T20:30:23.034Z,100648.63
2022-11-02T20:32:52.066Z,100650.59
2022-11-02T20:35:24.568Z,100641.44
2022-11-02T20:37:52.420Z,100649.44
2022-11-02T20:40:19.987Z,100647.97
2022-11-02T20:42:49.352Z,100643.13
2022-11-02T20:45:17.818Z,100641.47
2022-11-02T20:47:46.905Z,100650.19
2022-11-02T20:50:16.728Z,100647.50
2022-11-02T20:52:46.839Z,100633.47
2022-11-02T20:55:14.473Z,100634.31
2022-11-02T20:57:42.135Z,100644.47
2022-11-02T21:00:11.553Z,100649.63
2022-11-02T21:02:39.458Z,100643.28
2022-11-02T21:05:09.626Z,100636.09
2022-11-02T21:07:38.981Z,100625.09
2022-11-02T21:10:07.990Z,100630.25
2022-11-02T21:12:53.037Z,100643.41
2022-11-02T21:15:20.697Z,100642.94
2022-11-02T21:17:48.910Z,100636.91
2022-11-02T21:20:33.516Z,100637.59
2022-11-02T21:23:02.753Z,100629.38
2022-11-02T21:25:31.699Z,100628.09
2022-11-02T21:27:59.862Z,100619.22
2022-11-02T21:30:28.473Z,100625.22
2022-11-02T21:32:56.073Z,100626.88
2022-11-02T21:35:27.771Z,100620.56
2022-11-02T21:38:01.246Z,100633.72
2022-11-02T21:40:31.532Z,100620.22
2022-11-02T21:42:59.303Z,100620.75
2022-11-02T21:45:27.012Z,100612.88
2022-11-02T21:47:54.600Z,100610.88
2022-11-02T21:50:22.205Z,100602.53
2022-11-02T21:52:51.189Z,100604.53
2022-11-02T21:55:18.793Z,100594.88
2022-11-02T21:57:46.745Z,100600.72
2022-11-02T22:00:15.533Z,100600.72
2022-11-02T22:02:42.331Z,100604.03
2022-11-02T22:05:30.288Z,100600.88
2022-11-02T22:08:17.005Z,100599.00
2022-11-02T22:10:44.882Z,100595.50
2022-11-02T22:13:29.986Z,100585.34
2022-11-02T22:15:57.716Z,100582.69
2022-11-02T22:18:25.429Z,100576.16
2022-11-02T22:20:56.138Z,100590.50
2022-11-02T22:23:25.234Z,100592.81
2022-11-02T22:25:58.425Z,100589.66
2022-11-02T22:28:30.356Z,100585.34
2022-11-02T22:30:58.251Z,100580.31
2022-11-02T22:33:26.458Z,100572.66
2022-11-02T22:35:54.077Z,100576.16
2022-11-02T22:38:39.216Z,100569.16
2022-11-02T22:41:08.356Z,100562.16
2022-11-02T22:43:36.023Z,100559.78
2022-11-02T22:46:06.030Z,100557.94
2022-11-02T22:48:34.291Z,100563.97
2022-11-02T22:51:02.304Z,100553.97
2022-11-02T22:53:30.239Z,100553.09
2022-11-02T22:55:59.647Z,100546.28
2022-11-02T22:58:30.361Z,100545.78
2022-11-02T23:00:58.478Z,100547.75
2022-11-02T23:03:26.277Z,100534.25
2022-11-02T23:05:54.311Z,100532.44
2022-11-02T23:08:22.266Z,100536.09
2022-11-02T23:11:13.078Z,100538.91
2022-11-02T23:13:43.598Z,100538.25
2022-11-02T23:16:24.833Z,100528.06
2022-11-02T23:19:12.807Z,100525.91
2022-11-02T23:21:41.855Z,100524.72
2022-11-02T23:24:27.739Z,100517.72
2022-11-02T23:26:56.946Z,100513.88
2022-11-02T23:29:43.684Z,100523.56
2022-11-02T23:32:27.518Z,100529.41
2022-11-02T23:35:14.290Z,100527.22
2022-11-02T23:37:42.444Z,100537.59
2022-11-02T23:40:11.498Z,100533.56
2022-11-02T23:42:39.401Z,100528.75
2022-11-02T23:45:10.725Z,100526.56
2022-11-02T23:47:56.615Z,100531.72
2022-11-02T23:50:43.679Z,100527.88
2022-11-02T23:53:30.793Z,100524.56
2022-11-02T23:56:16.440Z,100518.56
2022-11-02T23:58:44.347Z,100517.72
